sensor_id;sensor_type;location;lat;lon;timestamp;P1;durP1;ratioP1;P2;durP2;ratioP2
56081;SDS011;41957;52.060;5.138;2022-09-24T00:00:41;25.38;;;14.38;;
56081;SDS011;41957;52.060;5.138;2022-09-24T00:03:08;24.30;;;13.93;;
56081;SDS011;41957;52.060;5.138;2022-09-24T00:05:37;24.25;;;12.68;;
56081;SDS011;41957;52.060;5.138;2022-09-24T00:08:04;24.42;;;13.50;;
56081;SDS011;41957;52.060;5.138;2022-09-24T00:10:39;25.08;;;12.55;;
56081;SDS011;41957;52.060;5.138;2022-09-24T00:13:06;25.48;;;13.02;;
56081;SDS011;41957;52.060;5.138;2022-09-24T00:15:36;24.42;;;12.73;;
56081;SDS011;41957;52.060;5.138;2022-09-24T00:18:03;25.02;;;12.82;;
56081;SDS011;41957;52.060;5.138;2022-09-24T00:20:29;23.40;;;11.88;;
56081;SDS011;41957;52.060;5.138;2022-09-24T00:22:55;21.10;;;12.10;;
56081;SDS011;41957;52.060;5.138;2022-09-24T00:25:21;22.10;;;11.70;;
56081;SDS011;41957;52.060;5.138;2022-09-24T00:28:05;23.13;;;12.40;;
56081;SDS011;41957;52.060;5.138;2022-09-24T00:30:30;22.90;;;12.13;;
56081;SDS011;41957;52.060;5.138;2022-09-24T00:32:55;21.77;;;12.00;;
56081;SDS011;41957;52.060;5.138;2022-09-24T00:35:21;22.30;;;11.65;;
56081;SDS011;41957;52.060;5.138;2022-09-24T00:37:47;24.35;;;11.90;;
56081;SDS011;41957;52.060;5.138;2022-09-24T00:40:13;22.52;;;11.50;;
56081;SDS011;41957;52.060;5.138;2022-09-24T00:42:39;23.48;;;11.32;;
56081;SDS011;41957;52.060;5.138;2022-09-24T00:45:06;21.17;;;11.65;;
56081;SDS011;41957;52.060;5.138;2022-09-24T00:47:34;21.95;;;11.32;;
56081;SDS011;41957;52.060;5.138;2022-09-24T00:50:35;21.60;;;11.50;;
56081;SDS011;41957;52.060;5.138;2022-09-24T00:52:57;23.23;;;11.48;;
56081;SDS011;41957;52.060;5.138;2022-09-24T00:55:35;22.20;;;11.07;;
56081;SDS011;41957;52.060;5.138;2022-09-24T00:58:03;20.88;;;10.88;;
56081;SDS011;41957;52.060;5.138;2022-09-24T01:00:31;24.23;;;11.70;;
56081;SDS011;41957;52.060;5.138;2022-09-24T01:02:58;19.52;;;10.63;;
56081;SDS011;41957;52.060;5.138;2022-09-24T01:05:27;20.70;;;10.68;;
56081;SDS011;41957;52.060;5.138;2022-09-24T01:07:52;22.15;;;10.55;;
56081;SDS011;41957;52.060;5.138;2022-09-24T01:10:19;20.20;;;10.43;;
56081;SDS011;41957;52.060;5.138;2022-09-24T01:13:23;21.42;;;10.70;;
56081;SDS011;41957;52.060;5.138;2022-09-24T01:16:06;20.40;;;9.85;;
56081;SDS011;41957;52.060;5.138;2022-09-24T01:27:04;17.60;;;8.90;;
56081;SDS011;41957;52.060;5.138;2022-09-24T01:32:07;18.55;;;9.15;;
56081;SDS011;41957;52.060;5.138;2022-09-24T01:34:43;22.15;;;10.32;;
56081;SDS011;41957;52.060;5.138;2022-09-24T01:37:13;19.75;;;9.93;;
56081;SDS011;41957;52.060;5.138;2022-09-24T01:39:42;18.65;;;9.23;;
56081;SDS011;41957;52.060;5.138;2022-09-24T01:42:11;18.65;;;9.40;;
56081;SDS011;41957;52.060;5.138;2022-09-24T01:44:38;18.17;;;9.45;;
56081;SDS011;41957;52.060;5.138;2022-09-24T01:47:06;17.98;;;8.88;;
56081;SDS011;41957;52.060;5.138;2022-09-24T01:49:32;19.13;;;10.20;;
56081;SDS011;41957;52.060;5.138;2022-09-24T01:51:58;18.25;;;9.40;;
56081;SDS011;41957;52.060;5.138;2022-09-24T01:54:38;18.58;;;9.07;;
56081;SDS011;41957;52.060;5.138;2022-09-24T01:57:07;18.13;;;9.30;;
56081;SDS011;41957;52.060;5.138;2022-09-24T01:59:40;19.92;;;9.57;;
56081;SDS011;41957;52.060;5.138;2022-09-24T02:10:34;18.15;;;9.27;;
56081;SDS011;41957;52.060;5.138;2022-09-24T02:13:22;16.67;;;8.57;;
56081;SDS011;41957;52.060;5.138;2022-09-24T02:15:51;17.70;;;8.90;;
56081;SDS011;41957;52.060;5.138;2022-09-24T02:18:22;18.13;;;8.98;;
56081;SDS011;41957;52.060;5.138;2022-09-24T02:20:53;17.90;;;9.10;;
56081;SDS011;41957;52.060;5.138;2022-09-24T02:23:20;16.33;;;8.57;;
56081;SDS011;41957;52.060;5.138;2022-09-24T02:25:53;18.00;;;8.45;;
56081;SDS011;41957;52.060;5.138;2022-09-24T02:28:22;17.55;;;8.57;;
56081;SDS011;41957;52.060;5.138;2022-09-24T02:31:34;17.15;;;8.20;;
56081;SDS011;41957;52.060;5.138;2022-09-24T02:33:46;18.33;;;8.05;;
56081;SDS011;41957;52.060;5.138;2022-09-24T02:36:33;16.92;;;8.50;;
56081;SDS011;41957;52.060;5.138;2022-09-24T02:38:59;17.25;;;8.48;;
56081;SDS011;41957;52.060;5.138;2022-09-24T02:41:25;18.30;;;8.48;;
56081;SDS011;41957;52.060;5.138;2022-09-24T02:43:52;16.67;;;8.30;;
56081;SDS011;41957;52.060;5.138;2022-09-24T02:46:18;17.02;;;8.10;;
56081;SDS011;41957;52.060;5.138;2022-09-24T02:48:43;17.25;;;8.38;;
56081;SDS011;41957;52.060;5.138;2022-09-24T02:51:09;16.35;;;8.02;;
56081;SDS011;41957;52.060;5.138;2022-09-24T02:53:34;15.25;;;7.80;;
56081;SDS011;41957;52.060;5.138;2022-09-24T02:56:00;16.40;;;8.00;;
56081;SDS011;41957;52.060;5.138;2022-09-24T02:58:26;16.63;;;8.40;;
56081;SDS011;41957;52.060;5.138;2022-09-24T03:00:52;18.35;;;7.55;;
56081;SDS011;41957;52.060;5.138;2022-09-24T03:03:24;17.15;;;8.20;;
56081;SDS011;41957;52.060;5.138;2022-09-24T03:05:50;17.08;;;8.20;;
56081;SDS011;41957;52.060;5.138;2022-09-24T03:08:16;17.40;;;7.97;;
56081;SDS011;41957;52.060;5.138;2022-09-24T03:10:42;17.30;;;7.65;;
56081;SDS011;41957;52.060;5.138;2022-09-24T03:13:08;15.00;;;7.30;;
56081;SDS011;41957;52.060;5.138;2022-09-24T03:15:34;16.73;;;7.68;;
56081;SDS011;41957;52.060;5.138;2022-09-24T03:18:00;15.75;;;7.30;;
56081;SDS011;41957;52.060;5.138;2022-09-24T03:20:25;16.75;;;7.75;;
56081;SDS011;41957;52.060;5.138;2022-09-24T03:22:50;16.70;;;7.97;;
56081;SDS011;41957;52.060;5.138;2022-09-24T03:25:16;16.85;;;7.10;;
56081;SDS011;41957;52.060;5.138;2022-09-24T03:27:42;15.85;;;8.07;;
56081;SDS011;41957;52.060;5.138;2022-09-24T03:30:08;16.05;;;7.32;;
56081;SDS011;41957;52.060;5.138;2022-09-24T03:32:52;16.10;;;8.10;;
56081;SDS011;41957;52.060;5.138;2022-09-24T03:35:18;16.92;;;7.32;;
56081;SDS011;41957;52.060;5.138;2022-09-24T03:37:44;17.02;;;7.72;;
56081;SDS011;41957;52.060;5.138;2022-09-24T03:40:10;16.27;;;7.47;;
56081;SDS011;41957;52.060;5.138;2022-09-24T03:42:35;17.25;;;7.63;;
56081;SDS011;41957;52.060;5.138;2022-09-24T03:45:01;16.45;;;7.97;;
56081;SDS011;41957;52.060;5.138;2022-09-24T03:47:26;16.15;;;7.75;;
56081;SDS011;41957;52.060;5.138;2022-09-24T03:49:52;16.52;;;7.18;;
56081;SDS011;41957;52.060;5.138;2022-09-24T03:52:18;16.83;;;7.00;;
56081;SDS011;41957;52.060;5.138;2022-09-24T03:54:43;15.48;;;7.68;;
56081;SDS011;41957;52.060;5.138;2022-09-24T03:57:09;14.80;;;7.10;;
56081;SDS011;41957;52.060;5.138;2022-09-24T03:59:38;14.20;;;6.80;;
56081;SDS011;41957;52.060;5.138;2022-09-24T04:02:06;16.50;;;7.65;;
56081;SDS011;41957;52.060;5.138;2022-09-24T04:04:32;14.75;;;7.25;;
56081;SDS011;41957;52.060;5.138;2022-09-24T04:06:57;16.45;;;7.78;;
56081;SDS011;41957;52.060;5.138;2022-09-24T04:09:23;15.18;;;7.15;;
56081;SDS011;41957;52.060;5.138;2022-09-24T04:11:48;16.23;;;7.20;;
56081;SDS011;41957;52.060;5.138;2022-09-24T04:14:16;15.30;;;6.80;;
56081;SDS011;41957;52.060;5.138;2022-09-24T04:16:41;14.30;;;6.90;;
56081;SDS011;41957;52.060;5.138;2022-09-24T04:19:07;15.27;;;7.03;;
56081;SDS011;41957;52.060;5.138;2022-09-24T04:21:32;15.45;;;6.68;;
56081;SDS011;41957;52.060;5.138;2022-09-24T04:23:57;14.82;;;6.47;;
56081;SDS011;41957;52.060;5.138;2022-09-24T04:26:22;14.65;;;6.85;;
56081;SDS011;41957;52.060;5.138;2022-09-24T04:28:48;14.77;;;6.55;;
56081;SDS011;41957;52.060;5.138;2022-09-24T04:31:14;14.80;;;7.20;;
56081;SDS011;41957;52.060;5.138;2022-09-24T04:33:39;14.52;;;6.55;;
56081;SDS011;41957;52.060;5.138;2022-09-24T04:36:05;14.00;;;6.38;;
56081;SDS011;41957;52.060;5.138;2022-09-24T04:38:30;14.45;;;6.57;;
56081;SDS011;41957;52.060;5.138;2022-09-24T04:41:02;14.98;;;6.97;;
56081;SDS011;41957;52.060;5.138;2022-09-24T04:43:32;14.77;;;6.90;;
56081;SDS011;41957;52.060;5.138;2022-09-24T04:45:57;13.95;;;6.88;;
56081;SDS011;41957;52.060;5.138;2022-09-24T04:48:23;14.55;;;6.40;;
56081;SDS011;41957;52.060;5.138;2022-09-24T04:50:49;14.23;;;6.75;;
56081;SDS011;41957;52.060;5.138;2022-09-24T04:53:14;15.35;;;6.80;;
56081;SDS011;41957;52.060;5.138;2022-09-24T04:55:40;14.13;;;6.47;;
56081;SDS011;41957;52.060;5.138;2022-09-24T04:58:05;15.43;;;6.75;;
56081;SDS011;41957;52.060;5.138;2022-09-24T05:00:31;15.15;;;7.07;;
56081;SDS011;41957;52.060;5.138;2022-09-24T05:02:58;14.60;;;6.55;;
56081;SDS011;41957;52.060;5.138;2022-09-24T05:05:25;14.38;;;6.68;;
56081;SDS011;41957;52.060;5.138;2022-09-24T05:07:51;14.80;;;6.60;;
56081;SDS011;41957;52.060;5.138;2022-09-24T05:10:16;13.60;;;6.25;;
56081;SDS011;41957;52.060;5.138;2022-09-24T05:12:42;15.45;;;6.78;;
56081;SDS011;41957;52.060;5.138;2022-09-24T05:15:07;14.98;;;6.15;;
56081;SDS011;41957;52.060;5.138;2022-09-24T05:17:36;14.00;;;6.35;;
56081;SDS011;41957;52.060;5.138;2022-09-24T05:20:02;14.75;;;6.70;;
56081;SDS011;41957;52.060;5.138;2022-09-24T05:22:28;15.52;;;6.68;;
56081;SDS011;41957;52.060;5.138;2022-09-24T05:24:55;15.07;;;6.72;;
56081;SDS011;41957;52.060;5.138;2022-09-24T05:27:20;14.02;;;5.97;;
56081;SDS011;41957;52.060;5.138;2022-09-24T05:29:47;14.65;;;6.63;;
56081;SDS011;41957;52.060;5.138;2022-09-24T05:32:13;14.70;;;6.32;;
56081;SDS011;41957;52.060;5.138;2022-09-24T05:34:44;13.43;;;6.07;;
56081;SDS011;41957;52.060;5.138;2022-09-24T05:37:10;15.02;;;6.22;;
56081;SDS011;41957;52.060;5.138;2022-09-24T05:39:36;14.18;;;6.43;;
56081;SDS011;41957;52.060;5.138;2022-09-24T05:42:02;14.73;;;6.72;;
56081;SDS011;41957;52.060;5.138;2022-09-24T05:44:28;13.77;;;6.20;;
56081;SDS011;41957;52.060;5.138;2022-09-24T05:46:55;13.60;;;6.10;;
56081;SDS011;41957;52.060;5.138;2022-09-24T05:49:20;14.20;;;5.97;;
56081;SDS011;41957;52.060;5.138;2022-09-24T05:51:46;13.32;;;6.00;;
56081;SDS011;41957;52.060;5.138;2022-09-24T05:54:15;15.07;;;6.95;;
56081;SDS011;41957;52.060;5.138;2022-09-24T05:56:42;14.68;;;6.25;;
56081;SDS011;41957;52.060;5.138;2022-09-24T05:59:07;14.60;;;6.72;;
56081;SDS011;41957;52.060;5.138;2022-09-24T06:01:33;13.82;;;6.38;;
56081;SDS011;41957;52.060;5.138;2022-09-24T06:03:58;15.50;;;6.90;;
56081;SDS011;41957;52.060;5.138;2022-09-24T06:06:24;13.85;;;6.07;;
56081;SDS011;41957;52.060;5.138;2022-09-24T06:08:50;13.00;;;5.85;;
56081;SDS011;41957;52.060;5.138;2022-09-24T06:11:16;13.20;;;5.78;;
56081;SDS011;41957;52.060;5.138;2022-09-24T06:13:41;14.10;;;6.07;;
56081;SDS011;41957;52.060;5.138;2022-09-24T06:16:07;14.60;;;6.50;;
56081;SDS011;41957;52.060;5.138;2022-09-24T06:18:34;13.60;;;6.15;;
56081;SDS011;41957;52.060;5.138;2022-09-24T06:21:02;14.30;;;5.68;;
56081;SDS011;41957;52.060;5.138;2022-09-24T06:23:29;14.25;;;6.20;;
56081;SDS011;41957;52.060;5.138;2022-09-24T06:25:56;14.77;;;6.35;;
56081;SDS011;41957;52.060;5.138;2022-09-24T06:28:21;15.18;;;6.50;;
56081;SDS011;41957;52.060;5.138;2022-09-24T06:30:48;13.25;;;6.00;;
56081;SDS011;41957;52.060;5.138;2022-09-24T06:33:13;14.00;;;6.13;;
56081;SDS011;41957;52.060;5.138;2022-09-24T06:35:39;14.77;;;6.32;;
56081;SDS011;41957;52.060;5.138;2022-09-24T06:38:07;13.45;;;6.00;;
56081;SDS011;41957;52.060;5.138;2022-09-24T06:40:35;14.27;;;6.43;;
56081;SDS011;41957;52.060;5.138;2022-09-24T06:43:00;14.00;;;5.72;;
56081;SDS011;41957;52.060;5.138;2022-09-24T06:45:25;13.55;;;5.63;;
56081;SDS011;41957;52.060;5.138;2022-09-24T06:47:52;13.70;;;6.18;;
56081;SDS011;41957;52.060;5.138;2022-09-24T06:50:17;14.18;;;5.53;;
56081;SDS011;41957;52.060;5.138;2022-09-24T06:52:42;13.13;;;5.68;;
56081;SDS011;41957;52.060;5.138;2022-09-24T06:55:08;15.35;;;6.03;;
56081;SDS011;41957;52.060;5.138;2022-09-24T06:57:33;14.10;;;6.00;;
56081;SDS011;41957;52.060;5.138;2022-09-24T06:59:58;14.38;;;6.18;;
56081;SDS011;41957;52.060;5.138;2022-09-24T07:02:24;13.90;;;5.65;;
56081;SDS011;41957;52.060;5.138;2022-09-24T07:04:49;14.02;;;6.15;;
56081;SDS011;41957;52.060;5.138;2022-09-24T07:07:15;14.50;;;5.95;;
56081;SDS011;41957;52.060;5.138;2022-09-24T07:09:57;14.07;;;6.30;;
56081;SDS011;41957;52.060;5.138;2022-09-24T07:12:25;13.75;;;6.28;;
56081;SDS011;41957;52.060;5.138;2022-09-24T07:14:51;13.73;;;6.32;;
56081;SDS011;41957;52.060;5.138;2022-09-24T07:17:16;15.25;;;6.28;;
56081;SDS011;41957;52.060;5.138;2022-09-24T07:19:41;14.43;;;6.63;;
56081;SDS011;41957;52.060;5.138;2022-09-24T07:22:07;15.30;;;6.80;;
56081;SDS011;41957;52.060;5.138;2022-09-24T07:24:33;15.18;;;6.63;;
56081;SDS011;41957;52.060;5.138;2022-09-24T07:26:58;15.15;;;7.10;;
56081;SDS011;41957;52.060;5.138;2022-09-24T07:29:24;15.20;;;6.47;;
56081;SDS011;41957;52.060;5.138;2022-09-24T07:31:49;15.15;;;6.57;;
56081;SDS011;41957;52.060;5.138;2022-09-24T07:34:15;14.48;;;6.63;;
56081;SDS011;41957;52.060;5.138;2022-09-24T07:36:40;14.38;;;6.60;;
56081;SDS011;41957;52.060;5.138;2022-09-24T07:39:06;16.33;;;7.18;;
56081;SDS011;41957;52.060;5.138;2022-09-24T07:41:32;15.35;;;7.00;;
56081;SDS011;41957;52.060;5.138;2022-09-24T07:43:58;15.18;;;7.03;;
56081;SDS011;41957;52.060;5.138;2022-09-24T07:46:24;15.73;;;7.22;;
56081;SDS011;41957;52.060;5.138;2022-09-24T07:48:53;16.73;;;7.72;;
56081;SDS011;41957;52.060;5.138;2022-09-24T07:51:22;17.65;;;7.55;;
56081;SDS011;41957;52.060;5.138;2022-09-24T07:53:51;16.00;;;7.68;;
56081;SDS011;41957;52.060;5.138;2022-09-24T07:56:17;15.52;;;6.93;;
56081;SDS011;41957;52.060;5.138;2022-09-24T07:58:42;16.10;;;7.20;;
56081;SDS011;41957;52.060;5.138;2022-09-24T08:01:07;15.85;;;6.65;;
56081;SDS011;41957;52.060;5.138;2022-09-24T08:03:33;15.40;;;7.22;;
56081;SDS011;41957;52.060;5.138;2022-09-24T08:05:58;17.83;;;6.97;;
56081;SDS011;41957;52.060;5.138;2022-09-24T08:08:25;16.45;;;7.22;;
56081;SDS011;41957;52.060;5.138;2022-09-24T08:10:51;14.70;;;6.60;;
56081;SDS011;41957;52.060;5.138;2022-09-24T08:13:16;16.10;;;7.22;;
56081;SDS011;41957;52.060;5.138;2022-09-24T08:15:42;17.63;;;6.60;;
56081;SDS011;41957;52.060;5.138;2022-09-24T08:18:07;16.08;;;6.03;;
56081;SDS011;41957;52.060;5.138;2022-09-24T08:20:34;14.25;;;6.80;;
56081;SDS011;41957;52.060;5.138;2022-09-24T08:23:02;14.55;;;6.35;;
56081;SDS011;41957;52.060;5.138;2022-09-24T08:25:29;14.63;;;6.63;;
56081;SDS011;41957;52.060;5.138;2022-09-24T08:27:55;15.88;;;6.38;;
56081;SDS011;41957;52.060;5.138;2022-09-24T08:30:24;13.82;;;5.90;;
56081;SDS011;41957;52.060;5.138;2022-09-24T08:32:50;15.32;;;6.60;;
56081;SDS011;41957;52.060;5.138;2022-09-24T08:35:15;14.38;;;5.80;;
56081;SDS011;41957;52.060;5.138;2022-09-24T08:37:40;13.80;;;5.95;;
56081;SDS011;41957;52.060;5.138;2022-09-24T08:40:06;14.23;;;5.95;;
56081;SDS011;41957;52.060;5.138;2022-09-24T08:42:49;13.25;;;5.95;;
56081;SDS011;41957;52.060;5.138;2022-09-24T08:45:21;13.75;;;5.75;;
56081;SDS011;41957;52.060;5.138;2022-09-24T08:48:11;13.98;;;5.93;;
56081;SDS011;41957;52.060;5.138;2022-09-24T08:50:39;14.07;;;6.00;;
56081;SDS011;41957;52.060;5.138;2022-09-24T08:53:22;13.70;;;5.32;;
56081;SDS011;41957;52.060;5.138;2022-09-24T08:55:57;16.67;;;5.90;;
56081;SDS011;41957;52.060;5.138;2022-09-24T09:06:42;13.50;;;5.57;;
56081;SDS011;41957;52.060;5.138;2022-09-24T09:09:11;14.38;;;5.32;;
56081;SDS011;41957;52.060;5.138;2022-09-24T09:11:42;12.57;;;5.38;;
56081;SDS011;41957;52.060;5.138;2022-09-24T09:19:57;13.18;;;4.78;;
56081;SDS011;41957;52.060;5.138;2022-09-24T09:22:28;12.88;;;5.35;;
56081;SDS011;41957;52.060;5.138;2022-09-24T09:24:59;12.48;;;5.18;;
56081;SDS011;41957;52.060;5.138;2022-09-24T09:27:34;14.02;;;5.10;;
56081;SDS011;41957;52.060;5.138;2022-09-24T09:30:02;13.35;;;5.00;;
56081;SDS011;41957;52.060;5.138;2022-09-24T09:40:51;12.75;;;5.10;;
56081;SDS011;41957;52.060;5.138;2022-09-24T09:43:23;11.98;;;4.47;;
56081;SDS011;41957;52.060;5.138;2022-09-24T09:45:55;12.05;;;4.63;;
56081;SDS011;41957;52.060;5.138;2022-09-24T09:48:36;12.77;;;4.95;;
56081;SDS011;41957;52.060;5.138;2022-09-24T09:51:08;12.55;;;4.82;;
56081;SDS011;41957;52.060;5.138;2022-09-24T09:53:51;12.63;;;4.47;;
56081;SDS011;41957;52.060;5.138;2022-09-24T09:56:21;13.00;;;4.38;;
56081;SDS011;41957;52.060;5.138;2022-09-24T09:58:48;12.75;;;4.57;;
56081;SDS011;41957;52.060;5.138;2022-09-24T10:01:17;12.10;;;4.20;;
56081;SDS011;41957;52.060;5.138;2022-09-24T10:06:08;12.68;;;4.70;;
56081;SDS011;41957;52.060;5.138;2022-09-24T10:08:36;12.63;;;4.28;;
56081;SDS011;41957;52.060;5.138;2022-09-24T10:11:01;12.90;;;4.47;;
56081;SDS011;41957;52.060;5.138;2022-09-24T10:13:27;11.23;;;4.28;;
56081;SDS011;41957;52.060;5.138;2022-09-24T10:15:56;11.90;;;4.22;;
56081;SDS011;41957;52.060;5.138;2022-09-24T10:20:52;12.45;;;4.63;;
56081;SDS011;41957;52.060;5.138;2022-09-24T10:23:20;10.65;;;3.88;;
56081;SDS011;41957;52.060;5.138;2022-09-24T10:25:59;11.93;;;4.35;;
56081;SDS011;41957;52.060;5.138;2022-09-24T10:28:26;11.25;;;3.80;;
56081;SDS011;41957;52.060;5.138;2022-09-24T10:31:12;10.63;;;3.65;;
56081;SDS011;41957;52.060;5.138;2022-09-24T10:33:41;11.98;;;4.38;;
56081;SDS011;41957;52.060;5.138;2022-09-24T10:36:22;10.63;;;3.60;;
56081;SDS011;41957;52.060;5.138;2022-09-24T10:38:48;13.27;;;3.85;;
56081;SDS011;41957;52.060;5.138;2022-09-24T10:41:25;10.95;;;3.75;;
56081;SDS011;41957;52.060;5.138;2022-09-24T10:43:54;13.70;;;3.70;;
56081;SDS011;41957;52.060;5.138;2022-09-24T10:46:43;12.05;;;3.58;;
56081;SDS011;41957;52.060;5.138;2022-09-24T10:49:47;10.10;;;3.30;;
56081;SDS011;41957;52.060;5.138;2022-09-24T11:00:15;11.20;;;3.17;;
56081;SDS011;41957;52.060;5.138;2022-09-24T11:05:24;8.38;;;2.85;;
56081;SDS011;41957;52.060;5.138;2022-09-24T11:19:02;12.35;;;3.58;;
56081;SDS011;41957;52.060;5.138;2022-09-24T11:29:40;9.75;;;2.70;;
56081;SDS011;41957;52.060;5.138;2022-09-24T11:45:47;8.85;;;2.50;;
56081;SDS011;41957;52.060;5.138;2022-09-24T11:53:53;10.82;;;3.38;;
56081;SDS011;41957;52.060;5.138;2022-09-24T11:56:39;10.80;;;3.10;;
56081;SDS011;41957;52.060;5.138;2022-09-24T11:59:20;17.50;;;3.20;;
56081;SDS011;41957;52.060;5.138;2022-09-24T12:01:55;11.82;;;2.97;;
56081;SDS011;41957;52.060;5.138;2022-09-24T12:07:18;10.63;;;2.90;;
56081;SDS011;41957;52.060;5.138;2022-09-24T12:10:03;12.20;;;3.25;;
56081;SDS011;41957;52.060;5.138;2022-09-24T12:12:41;10.75;;;2.75;;
56081;SDS011;41957;52.060;5.138;2022-09-24T12:15:13;9.60;;;2.80;;
56081;SDS011;41957;52.060;5.138;2022-09-24T12:22:47;11.10;;;3.00;;
56081;SDS011;41957;52.060;5.138;2022-09-24T12:25:16;11.30;;;2.60;;
56081;SDS011;41957;52.060;5.138;2022-09-24T12:27:41;9.85;;;2.50;;
56081;SDS011;41957;52.060;5.138;2022-09-24T12:33:31;9.00;;;2.38;;
56081;SDS011;41957;52.060;5.138;2022-09-24T12:36:16;10.07;;;2.72;;
56081;SDS011;41957;52.060;5.138;2022-09-24T12:38:51;10.23;;;2.90;;
56081;SDS011;41957;52.060;5.138;2022-09-24T12:46:39;10.57;;;2.70;;
56081;SDS011;41957;52.060;5.138;2022-09-24T12:51:48;10.20;;;3.05;;
56081;SDS011;41957;52.060;5.138;2022-09-24T12:54:35;8.63;;;2.58;;
56081;SDS011;41957;52.060;5.138;2022-09-24T12:59:57;11.68;;;2.75;;
56081;SDS011;41957;52.060;5.138;2022-09-24T13:02:28;11.57;;;2.83;;
56081;SDS011;41957;52.060;5.138;2022-09-24T13:07:29;11.45;;;2.78;;
56081;SDS011;41957;52.060;5.138;2022-09-24T13:10:11;11.52;;;2.95;;
56081;SDS011;41957;52.060;5.138;2022-09-24T13:12:46;11.45;;;2.50;;
56081;SDS011;41957;52.060;5.138;2022-09-24T13:15:34;10.18;;;2.40;;
56081;SDS011;41957;52.060;5.138;2022-09-24T13:18:01;11.25;;;2.70;;
56081;SDS011;41957;52.060;5.138;2022-09-24T13:21:03;10.02;;;2.60;;
56081;SDS011;41957;52.060;5.138;2022-09-24T13:23:30;8.43;;;2.58;;
56081;SDS011;41957;52.060;5.138;2022-09-24T13:26:06;10.73;;;2.80;;
56081;SDS011;41957;52.060;5.138;2022-09-24T13:28:37;10.77;;;2.50;;
56081;SDS011;41957;52.060;5.138;2022-09-24T13:36:37;9.85;;;2.63;;
56081;SDS011;41957;52.060;5.138;2022-09-24T13:44:58;11.00;;;2.35;;
56081;SDS011;41957;52.060;5.138;2022-09-24T13:47:42;10.60;;;2.20;;
56081;SDS011;41957;52.060;5.138;2022-09-24T13:50:28;8.77;;;2.17;;
56081;SDS011;41957;52.060;5.138;2022-09-24T13:55:44;8.52;;;2.45;;
56081;SDS011;41957;52.060;5.138;2022-09-24T13:58:28;10.13;;;2.78;;
56081;SDS011;41957;52.060;5.138;2022-09-24T14:00:56;10.85;;;2.70;;
56081;SDS011;41957;52.060;5.138;2022-09-24T14:03:28;11.18;;;2.40;;
56081;SDS011;41957;52.060;5.138;2022-09-24T14:05:56;10.80;;;2.40;;
56081;SDS011;41957;52.060;5.138;2022-09-24T14:08:23;8.73;;;2.10;;
56081;SDS011;41957;52.060;5.138;2022-09-24T14:10:51;9.48;;;2.10;;
56081;SDS011;41957;52.060;5.138;2022-09-24T14:13:27;9.32;;;2.25;;
56081;SDS011;41957;52.060;5.138;2022-09-24T14:15:53;10.90;;;2.53;;
56081;SDS011;41957;52.060;5.138;2022-09-24T14:18:20;8.65;;;2.08;;
56081;SDS011;41957;52.060;5.138;2022-09-24T14:20:57;9.63;;;2.58;;
56081;SDS011;41957;52.060;5.138;2022-09-24T14:23:24;8.15;;;2.13;;
56081;SDS011;41957;52.060;5.138;2022-09-24T14:25:56;10.55;;;2.22;;
56081;SDS011;41957;52.060;5.138;2022-09-24T14:28:22;10.48;;;2.42;;
56081;SDS011;41957;52.060;5.138;2022-09-24T14:30:52;11.02;;;2.53;;
56081;SDS011;41957;52.060;5.138;2022-09-24T14:33:19;8.38;;;2.20;;
56081;SDS011;41957;52.060;5.138;2022-09-24T14:35:50;10.20;;;2.53;;
56081;SDS011;41957;52.060;5.138;2022-09-24T14:38:22;7.60;;;2.08;;
56081;SDS011;41957;52.060;5.138;2022-09-24T14:43:37;8.50;;;2.05;;
56081;SDS011;41957;52.060;5.138;2022-09-24T14:46:20;8.35;;;2.00;;
56081;SDS011;41957;52.060;5.138;2022-09-24T14:48:49;10.55;;;2.28;;
56081;SDS011;41957;52.060;5.138;2022-09-24T14:51:20;10.45;;;2.20;;
56081;SDS011;41957;52.060;5.138;2022-09-24T14:53:55;7.53;;;2.00;;
56081;SDS011;41957;52.060;5.138;2022-09-24T14:56:30;9.02;;;2.13;;
56081;SDS011;41957;52.060;5.138;2022-09-24T14:58:57;9.52;;;2.40;;
56081;SDS011;41957;52.060;5.138;2022-09-24T15:01:32;8.40;;;2.13;;
56081;SDS011;41957;52.060;5.138;2022-09-24T15:06:29;8.00;;;2.28;;
56081;SDS011;41957;52.060;5.138;2022-09-24T15:08:58;8.00;;;2.00;;
56081;SDS011;41957;52.060;5.138;2022-09-24T15:11:27;7.68;;;1.90;;
56081;SDS011;41957;52.060;5.138;2022-09-24T15:16:33;7.50;;;1.90;;
56081;SDS011;41957;52.060;5.138;2022-09-24T15:21:31;8.25;;;2.13;;
56081;SDS011;41957;52.060;5.138;2022-09-24T15:23:59;8.30;;;2.20;;
56081;SDS011;41957;52.060;5.138;2022-09-24T15:26:27;7.55;;;2.10;;
56081;SDS011;41957;52.060;5.138;2022-09-24T15:29:01;8.60;;;2.40;;
56081;SDS011;41957;52.060;5.138;2022-09-24T15:31:27;11.73;;;2.17;;
56081;SDS011;41957;52.060;5.138;2022-09-24T15:33:53;10.90;;;2.47;;
56081;SDS011;41957;52.060;5.138;2022-09-24T15:36:20;7.55;;;2.05;;
56081;SDS011;41957;52.060;5.138;2022-09-24T15:38:46;8.57;;;2.10;;
56081;SDS011;41957;52.060;5.138;2022-09-24T15:41:14;8.77;;;1.90;;
56081;SDS011;41957;52.060;5.138;2022-09-24T15:43:39;7.40;;;2.00;;
56081;SDS011;41957;52.060;5.138;2022-09-24T15:46:04;8.85;;;2.20;;
56081;SDS011;41957;52.060;5.138;2022-09-24T15:48:30;8.48;;;2.00;;
56081;SDS011;41957;52.060;5.138;2022-09-24T15:50:55;9.55;;;2.10;;
56081;SDS011;41957;52.060;5.138;2022-09-24T15:53:21;9.30;;;2.00;;
56081;SDS011;41957;52.060;5.138;2022-09-24T15:55:51;7.85;;;2.17;;
56081;SDS011;41957;52.060;5.138;2022-09-24T15:58:18;8.40;;;1.90;;
56081;SDS011;41957;52.060;5.138;2022-09-24T16:00:44;10.73;;;2.20;;
56081;SDS011;41957;52.060;5.138;2022-09-24T16:03:31;8.32;;;2.00;;
56081;SDS011;41957;52.060;5.138;2022-09-24T16:05:57;8.00;;;1.98;;
56081;SDS011;41957;52.060;5.138;2022-09-24T16:08:23;8.82;;;2.05;;
56081;SDS011;41957;52.060;5.138;2022-09-24T16:10:49;7.10;;;1.92;;
56081;SDS011;41957;52.060;5.138;2022-09-24T16:13:15;9.02;;;2.08;;
56081;SDS011;41957;52.060;5.138;2022-09-24T16:15:41;10.93;;;2.53;;
56081;SDS011;41957;52.060;5.138;2022-09-24T16:18:08;10.45;;;2.63;;
56081;SDS011;41957;52.060;5.138;2022-09-24T16:20:38;10.70;;;2.75;;
56081;SDS011;41957;52.060;5.138;2022-09-24T16:23:05;11.38;;;3.30;;
56081;SDS011;41957;52.060;5.138;2022-09-24T16:25:35;16.98;;;6.88;;
56081;SDS011;41957;52.060;5.138;2022-09-24T16:28:01;26.00;;;14.77;;
56081;SDS011;41957;52.060;5.138;2022-09-24T16:30:26;29.00;;;16.63;;
56081;SDS011;41957;52.060;5.138;2022-09-24T16:32:51;29.98;;;17.75;;
56081;SDS011;41957;52.060;5.138;2022-09-24T16:35:17;27.70;;;16.45;;
56081;SDS011;41957;52.060;5.138;2022-09-24T16:37:42;31.80;;;16.08;;
56081;SDS011;41957;52.060;5.138;2022-09-24T16:40:08;24.52;;;14.60;;
56081;SDS011;41957;52.060;5.138;2022-09-24T16:42:34;25.77;;;14.50;;
56081;SDS011;41957;52.060;5.138;2022-09-24T16:44:59;26.65;;;15.18;;
56081;SDS011;41957;52.060;5.138;2022-09-24T16:47:25;27.17;;;14.60;;
56081;SDS011;41957;52.060;5.138;2022-09-24T16:49:50;27.80;;;14.82;;
56081;SDS011;41957;52.060;5.138;2022-09-24T16:52:15;27.02;;;14.85;;
56081;SDS011;41957;52.060;5.138;2022-09-24T16:54:41;25.83;;;14.57;;
56081;SDS011;41957;52.060;5.138;2022-09-24T16:57:06;25.25;;;14.95;;
56081;SDS011;41957;52.060;5.138;2022-09-24T16:59:32;26.38;;;13.63;;
56081;SDS011;41957;52.060;5.138;2022-09-24T17:01:57;25.98;;;13.68;;
56081;SDS011;41957;52.060;5.138;2022-09-24T17:04:23;24.98;;;13.93;;
56081;SDS011;41957;52.060;5.138;2022-09-24T17:06:51;25.73;;;13.10;;
56081;SDS011;41957;52.060;5.138;2022-09-24T17:09:17;25.45;;;13.13;;